createdAt,value
2023-02-01T00:00:32.979Z,100234.03
2023-02-01T00:01:09.725Z,100235.69
2023-02-01T00:01:46.256Z,100235.41
2023-02-01T00:02:22.464Z,100239.75
2023-02-01T00:02:58.873Z,100236.50
2023-02-01T00:03:34.744Z,100227.50
2023-02-01T00:04:10.588Z,100224.50
2023-02-01T00:04:46.385Z,100234.88
2023-02-01T00:05:22.826Z,100223.41
2023-02-01T00:05:59.656Z,100229.66
2023-02-01T00:06:35.766Z,100226.41
2023-02-01T00:07:14.353Z,100228.31
2023-02-01T00:07:49.814Z,100230.22
2023-02-01T00:08:25.792Z,100229.13
2023-02-01T00:09:02.390Z,100234.88
2023-02-01T00:09:38.721Z,100232.94
2023-02-01T00:10:14.534Z,100241.94
2023-02-01T00:10:50.272Z,100234.31
2023-02-01T00:11:26.533Z,100235.41
2023-02-01T00:12:03.251Z,100234.31
2023-02-01T00:12:39.152Z,100236.50
2023-02-01T00:13:16.257Z,100237.59
2023-02-01T00:13:52.292Z,100229.41
2023-02-01T00:14:28.224Z,100233.78
2023-02-01T00:15:06.353Z,100224.50
2023-02-01T00:15:42.095Z,100228.84
2023-02-01T00:16:18.514Z,100238.13
2023-02-01T00:16:54.892Z,100235.13
2023-02-01T00:17:31.520Z,100236.50
2023-02-01T00:18:07.089Z,100230.75
2023-02-01T00:18:42.454Z,100238.94
2023-02-01T00:19:19.308Z,100240.03
2023-02-01T00:19:55.601Z,100232.41
2023-02-01T00:20:32.096Z,100238.94
2023-02-01T00:21:08.196Z,100237.03
2023-02-01T00:21:44.593Z,100229.13
2023-02-01T00:22:20.987Z,100237.84
2023-02-01T00:22:57.232Z,100235.69
2023-02-01T00:23:33.423Z,100227.50
2023-02-01T00:24:09.246Z,100238.66
2023-02-01T00:24:45.935Z,100231.31
2023-02-01T00:25:22.275Z,100231.03
2023-02-01T00:25:59.602Z,100235.97
2023-02-01T00:26:36.221Z,100222.63
2023-02-01T00:27:12.202Z,100227.25
2023-02-01T00:27:48.945Z,100222.88
2023-02-01T00:28:24.808Z,100222.06
2023-02-01T00:29:00.112Z,100231.03
2023-02-01T00:29:37.034Z,100229.97
2023-02-01T00:30:13.160Z,100231.59
2023-02-01T00:30:49.208Z,100224.50
2023-02-01T00:31:27.059Z,100231.31
2023-02-01T00:32:04.028Z,100221.78
2023-02-01T00:32:40.289Z,100233.78
2023-02-01T00:33:16.018Z,100229.41
2023-02-01T00:33:52.204Z,100228.88
2023-02-01T00:34:28.201Z,100232.13
2023-02-01T00:35:04.340Z,100232.94
2023-02-01T00:35:40.496Z,100237.88
2023-02-01T00:36:17.155Z,100229.41
2023-02-01T00:36:53.366Z,100224.78
2023-02-01T00:37:29.685Z,100237.88
2023-02-01T00:38:05.832Z,100240.31
2023-02-01T00:38:41.720Z,100221.81
2023-02-01T00:39:17.618Z,100234.03
2023-02-01T00:39:53.431Z,100230.50
2023-02-01T00:40:29.897Z,100227.78
2023-02-01T00:41:06.547Z,100226.16
2023-02-01T00:41:45.097Z,100224.78
2023-02-01T00:42:22.998Z,100225.06
2023-02-01T00:42:58.961Z,100229.69
2023-02-01T00:43:35.198Z,100229.97
2023-02-01T00:44:10.785Z,100222.63
2023-02-01T00:44:48.705Z,100212.53
2023-02-01T00:45:25.266Z,100223.97
2023-02-01T00:46:01.440Z,100222.06
2023-02-01T00:46:38.168Z,100222.06
2023-02-01T00:47:14.811Z,100225.59
2023-02-01T00:47:50.940Z,100222.34
2023-02-01T00:48:27.087Z,100207.34
2023-02-01T00:49:03.098Z,100204.09
2023-02-01T00:49:38.412Z,100214.44
2023-02-01T00:50:16.249Z,100203.81
2023-02-01T00:50:52.649Z,100205.44
2023-02-01T00:51:28.481Z,100202.44
2023-02-01T00:52:05.629Z,100193.19
2023-02-01T00:52:42.239Z,100197.00
2023-02-01T00:53:19.220Z,100199.47
2023-02-01T00:53:55.337Z,100194.00
2023-02-01T00:54:31.768Z,100202.69
2023-02-01T00:55:07.994Z,100201.06
2023-02-01T00:55:43.950Z,100202.97
2023-02-01T00:56:20.223Z,100193.47
2023-02-01T00:56:56.933Z,100205.44
2023-02-01T00:57:33.919Z,100204.91
2023-02-01T00:58:09.633Z,100191.81
2023-02-01T00:58:46.331Z,100204.06
2023-02-01T00:59:22.796Z,100212.53
2023-02-01T00:59:58.709Z,100212.53
2023-02-01T01:00:35.342Z,100216.88
2023-02-01T01:01:12.050Z,100215.25
2023-02-01T01:01:48.571Z,100216.06
2023-02-01T01:02:25.160Z,100207.91
2023-02-01T01:03:01.467Z,100212.53
2023-02-01T01:03:38.361Z,100216.59
2023-02-01T01:04:13.650Z,100219.59
2023-02-01T01:04:49.629Z,100217.69
2023-02-01T01:05:26.110Z,100220.97
2023-02-01T01:06:02.295Z,100216.59
2023-02-01T01:06:38.998Z,100213.06
2023-02-01T01:07:15.725Z,100207.06
2023-02-01T01:07:51.833Z,100205.72
2023-02-01T01:08:27.987Z,100209.53
2023-02-01T01:09:04.494Z,100205.44
2023-02-01T01:09:40.283Z,100207.91
2023-02-01T01:10:15.974Z,100206.00
2023-02-01T01:10:52.151Z,100204.34
2023-02-01T01:11:28.412Z,100204.63
2023-02-01T01:12:04.430Z,100205.16
2023-02-01T01:12:40.837Z,100204.34
2023-02-01T01:13:17.011Z,100204.34
2023-02-01T01:13:52.732Z,100209.53
2023-02-01T01:14:29.220Z,100213.06
2023-02-01T01:15:05.337Z,100211.97
2023-02-01T01:15:41.160Z,100209.25
2023-02-01T01:16:17.930Z,100218.22
2023-02-01T01:16:53.880Z,100212.25
2023-02-01T01:17:30.428Z,100212.25
2023-02-01T01:18:06.620Z,100219.59
2023-02-01T01:18:43.069Z,100220.44
2023-02-01T01:19:18.919Z,100219.06
2023-02-01T01:19:54.364Z,100219.34
2023-02-01T01:20:30.783Z,100216.34
2023-02-01T01:21:07.270Z,100219.06
2023-02-01T01:21:43.875Z,100220.16
2023-02-01T01:22:20.933Z,100213.88
2023-02-01T01:22:57.279Z,100220.44
2023-02-01T01:23:33.605Z,100215.78
2023-02-01T01:24:10.095Z,100211.44
2023-02-01T01:24:45.593Z,100216.06
2023-02-01T01:25:21.959Z,100219.06
2023-02-01T01:25:58.510Z,100213.34
2023-02-01T01:26:34.867Z,100215.78
2023-02-01T01:27:11.083Z,100219.88
2023-02-01T01:27:47.492Z,100214.97
2023-02-01T01:28:23.591Z,100214.16
2023-02-01T01:28:59.905Z,100211.97
2023-02-01T01:29:36.170Z,100211.72
2023-02-01T01:30:11.739Z,100202.44
2023-02-01T01:30:47.743Z,100210.63
2023-02-01T01:31:24.079Z,100214.44
2023-02-01T01:32:00.745Z,100217.97
2023-02-01T01:32:36.653Z,100220.44
2023-02-01T01:33:13.239Z,100225.06
2023-02-01T01:33:49.341Z,100221.25
2023-02-01T01:34:25.524Z,100218.50
2023-02-01T01:35:01.696Z,100228.31
2023-02-01T01:35:37.493Z,100217.97
2023-02-01T01:36:13.623Z,100220.44
2023-02-01T01:36:50.055Z,100220.44
2023-02-01T01:37:26.616Z,100217.69
2023-02-01T01:38:02.786Z,100219.59
2023-02-01T01:38:39.126Z,100211.69
2023-02-01T01:39:15.482Z,100218.53
2023-02-01T01:39:51.149Z,100211.69
2023-02-01T01:40:27.165Z,100205.72
2023-02-01T01:41:02.916Z,100210.34
2023-02-01T01:41:39.191Z,100212.50
2023-02-01T01:42:15.648Z,100219.06
2023-02-01T01:42:51.476Z,100207.06
2023-02-01T01:43:28.377Z,100206.81
2023-02-01T01:44:04.754Z,100222.34
2023-02-01T01:44:41.290Z,100205.72
2023-02-01T01:45:17.719Z,100208.72
2023-02-01T01:45:53.390Z,100205.72
2023-02-01T01:46:29.351Z,100209.25
2023-02-01T01:47:05.988Z,100203.25
2023-02-01T01:47:41.906Z,100205.16
2023-02-01T01:48:17.937Z,100210.59
2023-02-01T01:48:54.154Z,100208.69
2023-02-01T01:49:29.842Z,100210.59
2023-02-01T01:50:05.216Z,100205.16
2023-02-01T01:50:41.940Z,100204.91
2023-02-01T01:51:17.738Z,100201.59
2023-02-01T01:51:54.134Z,100202.16
2023-02-01T01:52:30.521Z,100195.06
2023-02-01T01:53:06.801Z,100196.16
2023-02-01T01:53:43.147Z,100207.06
2023-02-01T01:54:19.055Z,100199.97
2023-02-01T01:54:54.794Z,100198.59
2023-02-01T01:55:30.993Z,100195.88
2023-02-01T01:56:06.872Z,100203.78
2023-02-01T01:56:43.138Z,100200.50
2023-02-01T01:57:19.097Z,100203.50
2023-02-01T01:57:55.789Z,100202.69
2023-02-01T01:58:31.989Z,100206.53
2023-02-01T01:59:07.985Z,100194.00
2023-02-01T01:59:44.123Z,100196.72
2023-02-01T02:00:19.809Z,100199.97
2023-02-01T02:00:55.997Z,100200.25
2023-02-01T02:01:31.927Z,100195.88
2023-02-01T02:02:08.387Z,100186.06
2023-02-01T02:02:45.275Z,100189.91
2023-02-01T02:03:21.139Z,100178.47
2023-02-01T02:03:57.897Z,100173.53
2023-02-01T02:04:33.930Z,100185.25
2023-02-01T02:05:10.094Z,100177.38
2023-02-01T02:05:46.065Z,100182.25
2023-02-01T02:06:22.855Z,100175.19
2023-02-01T02:06:59.627Z,100173.56
2023-02-01T02:08:10.654Z,100174.38
2023-02-01T02:08:47.103Z,100174.94
2023-02-01T02:09:23.056Z,100170.53
2023-02-01T02:10:01.204Z,100174.34
2023-02-01T02:10:36.569Z,100175.19
2023-02-01T02:11:12.454Z,100175.47
2023-02-01T02:11:48.723Z,100170.81
2023-02-01T02:12:24.978Z,100179.28
2023-02-01T02:13:01.256Z,100172.72
2023-02-01T02:13:37.714Z,100168.38
2023-02-01T02:14:14.258Z,100167.56
2023-02-01T02:14:50.193Z,100168.91
2023-02-01T02:15:26.570Z,100176.00
2023-02-01T02:16:03.565Z,100171.38
2023-02-01T02:16:39.499Z,100165.41
2023-02-01T02:17:16.345Z,100177.09
2023-02-01T02:17:52.210Z,100174.06
2023-02-01T02:18:28.599Z,100178.72
2023-02-01T02:19:05.191Z,100175.47
2023-02-01T02:19:41.462Z,100164.56
2023-02-01T02:20:17.693Z,100168.38
2023-02-01T02:20:54.039Z,100168.38
2023-02-01T02:21:29.918Z,100161.28
2023-02-01T02:22:05.349Z,100162.41
2023-02-01T02:22:40.651Z,100163.22
2023-02-01T02:23:16.755Z,100170.00
2023-02-01T02:23:53.732Z,100153.94
2023-02-01T02:24:29.615Z,100152.03
2023-02-01T02:25:06.472Z,100152.84
2023-02-01T02:25:42.449Z,100156.91
2023-02-01T02:26:18.641Z,100153.94
2023-02-01T02:26:54.433Z,100153.38
2023-02-01T02:27:29.567Z,100153.66
2023-02-01T02:28:05.707Z,100156.38
2023-02-01T02:28:41.779Z,100153.66
2023-02-01T02:29:18.547Z,100157.72
2023-02-01T02:29:54.951Z,100153.13
2023-02-01T02:30:30.853Z,100141.66
2023-02-01T02:31:06.557Z,100156.38
2023-02-01T02:31:43.179Z,100159.38
2023-02-01T02:32:19.160Z,100153.66
2023-02-01T02:32:55.117Z,100150.94
2023-02-01T02:33:31.519Z,100160.75
2023-02-01T02:34:07.363Z,100147.09
2023-02-01T02:34:43.474Z,100152.56
2023-02-01T02:35:19.430Z,100165.38
2023-02-01T02:35:56.068Z,100158.00
2023-02-01T02:36:32.356Z,100162.38
2023-02-01T02:37:08.111Z,100158.81
2023-02-01T02:37:44.441Z,100149.84
2023-02-01T02:38:20.052Z,100158.56
2023-02-01T02:38:56.629Z,100149.84
2023-02-01T02:39:32.744Z,100156.66
2023-02-01T02:40:09.631Z,100152.28
2023-02-01T02:40:46.107Z,100158.56
2023-02-01T02:41:23.258Z,100158.56
2023-02-01T02:41:59.762Z,100154.47
2023-02-01T02:42:36.422Z,100154.47
2023-02-01T02:43:12.725Z,100155.28
2023-02-01T02:43:48.469Z,100146.84
2023-02-01T02:44:24.509Z,100154.19
2023-02-01T02:45:00.440Z,100145.47
2023-02-01T02:45:37.570Z,100144.38
2023-02-01T02:46:14.046Z,100146.00
2023-02-01T02:46:50.373Z,100151.47
2023-02-01T02:47:27.209Z,100157.19
2023-02-01T02:48:03.663Z,100146.31
2023-02-01T02:48:39.749Z,100148.75
2023-02-01T02:49:15.458Z,100158.56
2023-02-01T02:49:51.603Z,100160.75
2023-02-01T02:50:27.976Z,100164.84
2023-02-01T02:51:04.740Z,100158.56
2023-02-01T02:51:41.205Z,100163.19
2023-02-01T02:52:17.463Z,100156.91
2023-02-01T02:52:53.289Z,100155.84
2023-02-01T02:53:30.035Z,100155.84
2023-02-01T02:54:05.972Z,100159.66
2023-02-01T02:54:41.793Z,100155.56
2023-02-01T02:55:18.013Z,100151.22
2023-02-01T02:55:54.187Z,100152.56
2023-02-01T02:56:30.134Z,100142.22
2023-02-01T02:57:06.094Z,100153.13
2023-02-01T02:57:42.581Z,100141.38
2023-02-01T02:58:18.844Z,100134.31
2023-02-01T02:58:54.674Z,100139.22
2023-02-01T02:59:30.700Z,100139.75
2023-02-01T03:00:06.680Z,100141.13
2023-02-01T03:00:42.320Z,100140.03
2023-02-01T03:01:17.658Z,100136.75
2023-02-01T03:01:54.344Z,100131.03
2023-02-01T03:02:30.626Z,100134.06
2023-02-01T03:03:06.797Z,100130.47
2023-02-01T03:03:43.212Z,100122.59
2023-02-01T03:04:19.235Z,100120.16
2023-02-01T03:04:55.469Z,100129.94
2023-02-01T03:05:31.165Z,100126.94
2023-02-01T03:06:06.841Z,100125.03
2023-02-01T03:06:43.393Z,100127.22
2023-02-01T03:07:19.499Z,100135.94
2023-02-01T03:07:55.389Z,100129.41
2023-02-01T03:08:31.848Z,100131.56
2023-02-01T03:09:08.338Z,100126.41
2023-02-01T03:09:44.517Z,100135.94
2023-02-01T03:10:20.818Z,100128.03
2023-02-01T03:10:56.400Z,100132.13
2023-02-01T03:11:32.183Z,100139.50
2023-02-01T03:12:08.384Z,100137.84
2023-02-01T03:12:45.266Z,100129.41
2023-02-01T03:13:21.420Z,100134.31
2023-02-01T03:13:57.403Z,100118.78
2023-02-01T03:14:33.527Z,100119.59
2023-02-01T03:15:09.921Z,100133.50
2023-02-01T03:15:46.069Z,100118.78
2023-02-01T03:16:21.611Z,100121.25
2023-02-01T03:16:57.714Z,100122.06
2023-02-01T03:17:34.149Z,100129.13
2023-02-01T03:18:10.055Z,100123.69
2023-02-01T03:18:46.557Z,100120.16
2023-02-01T03:19:22.633Z,100123.97
2023-02-01T03:19:58.829Z,100117.94
2023-02-01T03:20:35.177Z,100120.44
2023-02-01T03:21:11.999Z,100120.16
2023-02-01T03:21:47.727Z,100114.41
2023-02-01T03:22:23.961Z,100116.84
2023-02-01T03:23:00.460Z,100109.53
2023-02-01T03:23:37.059Z,100107.88
2023-02-01T03:24:13.520Z,100114.97
2023-02-01T03:24:49.850Z,100114.13
2023-02-01T03:25:25.672Z,100104.34
2023-02-01T03:26:02.269Z,100103.50
2023-02-01T03:26:38.225Z,100099.69
2023-02-01T03:27:14.141Z,100110.88
2023-02-01T03:27:51.235Z,100102.69
2023-02-01T03:28:27.291Z,100089.59
2023-02-01T03:29:03.855Z,100088.53
2023-02-01T03:29:40.192Z,100094.00
2023-02-01T03:30:16.842Z,100085.53
2023-02-01T03:30:53.705Z,100084.72
2023-02-01T03:31:29.761Z,100085.53
2023-02-01T03:32:05.744Z,100090.16
2023-02-01T03:32:41.884Z,100092.63
2023-02-01T03:33:18.117Z,100087.72
2023-02-01T03:33:54.929Z,100086.06
2023-02-01T03:34:31.084Z,100087.16
2023-02-01T03:35:07.194Z,100084.16
2023-02-01T03:35:44.050Z,100092.63
2023-02-01T03:36:19.723Z,100079.28
2023-02-01T03:36:56.254Z,100091.00
2023-02-01T03:37:32.636Z,100084.72
2023-02-01T03:38:08.380Z,100087.16
2023-02-01T03:38:45.018Z,100085.25
2023-02-01T03:39:21.264Z,100079.28
2023-02-01T03:39:56.368Z,100075.16
2023-02-01T03:40:32.083Z,100079.00
2023-02-01T03:41:08.019Z,100084.16
2023-02-01T03:41:44.697Z,100081.44
2023-02-01T03:42:20.689Z,100077.31
2023-02-01T03:42:57.395Z,100077.91
2023-02-01T03:43:34.111Z,100086.06
2023-02-01T03:44:09.932Z,100082.28
2023-02-01T03:44:45.588Z,100079.28
2023-02-01T03:45:21.096Z,100084.97
2023-02-01T03:45:57.118Z,100079.81
2023-02-01T03:46:33.175Z,100079.56
2023-02-01T03:47:10.064Z,100070.53
2023-02-01T03:47:46.609Z,100068.63
2023-02-01T03:48:22.885Z,100080.91
2023-02-01T03:48:59.172Z,100067.53
2023-02-01T03:49:35.220Z,100075.97
2023-02-01T03:50:11.221Z,100085.78
2023-02-01T03:50:46.768Z,100078.13
2023-02-01T03:51:23.631Z,100092.03
2023-02-01T03:51:59.752Z,100085.50
2023-02-01T03:52:36.599Z,100090.41
2023-02-01T03:53:12.623Z,100072.44
2023-02-01T03:53:49.529Z,100089.31
2023-02-01T03:54:26.589Z,100095.06
2023-02-01T03:55:02.802Z,100092.63
2023-02-01T03:55:38.411Z,100100.22
2023-02-01T03:56:14.836Z,100098.59
2023-02-01T03:56:51.738Z,100095.34
2023-02-01T03:57:28.143Z,100102.41
2023-02-01T03:58:04.109Z,100094.78
2023-02-01T03:58:41.140Z,100100.78
2023-02-01T03:59:17.591Z,100093.16
2023-02-01T03:59:53.968Z,100099.69
2023-02-01T04:00:30.041Z,100089.06
2023-02-01T04:01:06.038Z,100090.41
2023-02-01T04:01:42.108Z,100084.44
2023-02-01T04:02:18.598Z,100079.00
2023-02-01T04:02:54.572Z,100085.00
2023-02-01T04:03:30.657Z,100080.91
2023-02-01T04:04:07.203Z,100083.34
2023-02-01T04:04:43.689Z,100087.97
2023-02-01T04:05:19.326Z,100073.25
2023-02-01T04:05:55.679Z,100084.44
2023-02-01T04:06:31.572Z,100065.63
2023-02-01T04:07:07.524Z,100065.38
2023-02-01T04:07:43.793Z,100063.97
2023-02-01T04:08:20.125Z,100066.19
2023-02-01T04:08:56.585Z,100057.19
2023-02-01T04:09:32.346Z,100054.19
2023-02-01T04:10:08.650Z,100059.91
2023-02-01T04:10:45.090Z,100058.53
2023-02-01T04:11:20.776Z,100061.53
2023-02-01T04:11:56.368Z,100056.09
2023-02-01T04:12:32.674Z,100050.56
2023-02-01T04:13:08.957Z,100050.06
2023-02-01T04:13:45.260Z,100054.19
2023-02-01T04:14:21.124Z,100060.72
2023-02-01T04:14:57.295Z,100053.38
2023-02-01T04:15:33.786Z,100056.91
2023-02-01T04:16:09.977Z,100059.63
2023-02-01T04:16:46.298Z,100057.44
2023-02-01T04:17:21.643Z,100051.69
2023-02-01T04:17:58.017Z,100059.34
2023-02-01T04:18:34.002Z,100063.97
2023-02-01T04:19:10.781Z,100066.19
2023-02-01T04:19:47.091Z,100069.72
2023-02-01T04:20:23.380Z,100072.97
2023-02-01T04:20:59.708Z,100068.91
2023-02-01T04:21:35.639Z,100070.53
2023-02-01T04:22:11.431Z,100078.72
2023-02-01T04:22:47.378Z,100080.91
2023-02-01T04:23:23.845Z,100071.63
2023-02-01T04:24:00.429Z,100079.81
2023-02-01T04:24:36.226Z,100094.25
2023-02-01T04:25:12.986Z,100072.97
2023-02-01T04:25:49.197Z,100081.97
2023-02-01T04:26:25.236Z,100083.06
2023-02-01T04:27:01.007Z,100083.06
2023-02-01T04:27:37.343Z,100072.69
2023-02-01T04:28:14.250Z,100081.44
2023-02-01T04:28:50.571Z,100070.78
2023-02-01T04:29:26.863Z,100076.50
2023-02-01T04:30:05.718Z,100061.53
2023-02-01T04:30:42.550Z,100069.72
2023-02-01T04:31:18.993Z,100064.25
2023-02-01T04:31:54.667Z,100073.78
2023-02-01T04:32:30.404Z,100066.44
2023-02-01T04:33:06.453Z,100066.72
2023-02-01T04:33:42.659Z,100069.44
2023-02-01T04:34:18.788Z,100063.97
2023-02-01T04:34:55.180Z,100065.09
2023-02-01T04:35:30.984Z,100067.00
2023-02-01T04:36:07.788Z,100073.78
2023-02-01T04:36:46.357Z,100061.47
2023-02-01T04:37:22.288Z,100063.41
2023-02-01T04:37:58.063Z,100066.44
2023-02-01T04:38:34.199Z,100071.06
2023-02-01T04:39:10.303Z,100064.50
2023-02-01T04:39:46.810Z,100057.97
2023-02-01T04:40:22.855Z,100064.19
2023-02-01T04:40:59.295Z,100060.16
2023-02-01T04:41:35.980Z,100063.41
2023-02-01T04:42:12.397Z,100057.66
2023-02-01T04:42:48.487Z,100064.19
2023-02-01T04:43:23.845Z,100063.16
2023-02-01T04:44:00.845Z,100058.53
2023-02-01T04:44:37.039Z,100057.44
2023-02-01T04:45:13.405Z,100062.59
2023-02-01T04:45:49.982Z,100067.81
2023-02-01T04:46:25.798Z,100059.34
2023-02-01T04:47:02.660Z,100060.97
2023-02-01T04:47:39.564Z,100060.72
2023-02-01T04:48:15.355Z,100062.34
2023-02-01T04:48:50.861Z,100058.25
2023-02-01T04:49:26.872Z,100057.72
2023-02-01T04:50:03.321Z,100062.88
2023-02-01T04:50:39.406Z,100066.72
2023-02-01T04:51:15.812Z,100060.44
2023-02-01T04:51:51.255Z,100058.00
2023-02-01T04:52:26.986Z,100055.28
2023-02-01T04:53:03.790Z,100058.53
2023-02-01T04:53:39.557Z,100049.25
2023-02-01T04:54:15.665Z,100059.34
2023-02-01T04:54:52.603Z,100050.06
2023-02-01T04:55:28.840Z,100054.44
2023-02-01T04:56:05.002Z,100058.53
2023-02-01T04:56:40.855Z,100062.88
2023-02-01T04:57:16.652Z,100058.25
2023-02-01T04:57:53.080Z,100056.34
2023-02-01T04:58:28.903Z,100053.91
2023-02-01T04:59:05.555Z,100056.84
2023-02-01T04:59:42.670Z,100065.31
2023-02-01T05:00:18.974Z,100071.06
2023-02-01T05:00:55.171Z,100052.28
2023-02-01T05:01:31.152Z,100060.16
2023-02-01T05:02:06.722Z,100065.00
2023-02-01T05:02:43.593Z,100054.94
2023-02-01T05:03:19.659Z,100065.63
2023-02-01T05:03:56.081Z,100062.34
2023-02-01T05:04:32.164Z,100054.72
2023-02-01T05:05:08.142Z,100055.00
2023-02-01T05:05:43.841Z,100061.53
2023-02-01T05:06:20.736Z,100068.06
2023-02-01T05:06:56.561Z,100066.44
2023-02-01T05:07:32.267Z,100064.50
2023-02-01T05:08:08.653Z,100066.44
2023-02-01T05:08:45.047Z,100063.97
2023-02-01T05:09:21.114Z,100073.78
2023-02-01T05:09:56.872Z,100071.88
2023-02-01T05:10:33.480Z,100075.69
2023-02-01T05:11:09.428Z,100062.88
2023-02-01T05:11:45.963Z,100068.88
2023-02-01T05:12:22.011Z,100068.88
2023-02-01T05:12:57.639Z,100070.78
2023-02-01T05:13:33.705Z,100067.47
2023-02-01T05:14:09.771Z,100075.09
2023-02-01T05:14:45.754Z,100071.88
2023-02-01T05:15:22.411Z,100071.06
2023-02-01T05:15:58.695Z,100072.69
2023-02-01T05:16:35.487Z,100070.53
2023-02-01T05:17:11.361Z,100063.16
2023-02-01T05:17:47.392Z,100069.44
2023-02-01T05:18:23.816Z,100064.78
2023-02-01T05:18:59.532Z,100062.06
2023-02-01T05:19:35.889Z,100066.13
2023-02-01T05:20:12.578Z,100067.25
2023-02-01T05:20:48.717Z,100077.31
2023-02-01T05:21:25.128Z,100063.09
2023-02-01T05:22:00.700Z,100074.88
2023-02-01T05:22:36.648Z,100070.25
2023-02-01T05:23:13.321Z,100063.16
2023-02-01T05:23:49.645Z,100067.28
2023-02-01T05:24:25.967Z,100073.81
2023-02-01T05:25:01.793Z,100058.53
2023-02-01T05:25:37.859Z,100055.28
2023-02-01T05:26:14.367Z,100068.63
2023-02-01T05:26:50.913Z,100071.06
2023-02-01T05:27:26.771Z,100067.00
2023-02-01T05:28:03.095Z,100067.00
2023-02-01T05:28:39.246Z,100065.09
2023-02-01T05:29:15.368Z,100071.06
2023-02-01T05:29:51.615Z,100066.44
2023-02-01T05:30:28.991Z,100074.06
2023-02-01T05:31:05.897Z,100066.44
2023-02-01T05:31:41.813Z,100070.78
2023-02-01T05:32:22.627Z,100061.78
2023-02-01T05:32:58.282Z,100071.88
2023-02-01T05:33:34.677Z,100068.06
2023-02-01T05:34:10.567Z,100060.38
2023-02-01T05:34:47.077Z,100061.47
2023-02-01T05:35:23.847Z,100060.97
2023-02-01T05:36:00.386Z,100060.97
2023-02-01T05:36:36.369Z,100056.63
2023-02-01T05:37:12.568Z,100059.34
2023-02-01T05:37:48.042Z,100051.16
2023-02-01T05:38:24.714Z,100055.00
2023-02-01T05:39:00.534Z,100052.28
2023-02-01T05:39:37.032Z,100059.06
2023-02-01T05:40:12.964Z,100057.19
2023-02-01T05:40:49.381Z,100059.09
2023-02-01T05:41:26.538Z,100070.00
2023-02-01T05:42:02.933Z,100057.44
2023-02-01T05:42:38.643Z,100059.63
2023-02-01T05:43:14.663Z,100065.09
2023-02-01T05:43:50.888Z,100071.34
2023-02-01T05:44:27.308Z,100072.16
2023-02-01T05:45:05.953Z,100069.44
2023-02-01T05:45:42.149Z,100068.88
2023-02-01T05:46:18.380Z,100078.94
2023-02-01T05:46:54.411Z,100076.22
2023-02-01T05:47:30.740Z,100075.69
2023-02-01T05:48:06.388Z,100064.78
2023-02-01T05:48:41.675Z,100076.78
2023-02-01T05:49:18.283Z,100075.97
2023-02-01T05:49:54.918Z,100077.06
2023-02-01T05:50:30.787Z,100076.50
2023-02-01T05:51:07.518Z,100058.25
2023-02-01T05:51:43.758Z,100077.03
2023-02-01T05:52:20.485Z,100069.66
2023-02-01T05:52:56.566Z,100057.97
2023-02-01T05:53:32.792Z,100057.97
2023-02-01T05:54:08.515Z,100057.44
2023-02-01T05:54:44.728Z,100068.06
2023-02-01T05:55:20.554Z,100065.63
2023-02-01T05:55:56.110Z,100077.81
2023-02-01T05:56:32.204Z,100067.53
2023-02-01T05:57:09.158Z,100075.69
2023-02-01T05:57:45.204Z,100077.31
2023-02-01T05:58:21.823Z,100066.44
2023-02-01T05:58:58.214Z,100073.50
2023-02-01T05:59:33.830Z,100056.63
2023-02-01T06:00:10.528Z,100062.88
2023-02-01T06:00:46.798Z,100063.97
2023-02-01T06:01:22.261Z,100057.16
2023-02-01T06:01:58.368Z,100048.66
2023-02-01T06:02:34.639Z,100057.16
2023-02-01T06:03:11.056Z,100047.06
2023-02-01T06:03:46.675Z,100055.53
2023-02-01T06:04:23.065Z,100053.91
2023-02-01T06:04:59.545Z,100062.06
2023-02-01T06:05:35.628Z,100057.97
2023-02-01T06:06:11.263Z,100049.53
2023-02-01T06:06:47.690Z,100049.53
2023-02-01T06:07:23.697Z,100051.16
2023-02-01T06:08:00.474Z,100055.53
2023-02-01T06:08:36.527Z,100048.97
2023-02-01T06:09:13.227Z,100047.06
2023-02-01T06:09:49.367Z,100055.25
2023-02-01T06:10:26.039Z,100042.41
2023-02-01T06:11:02.177Z,100037.47
2023-02-01T06:11:37.633Z,100040.19
2023-02-01T06:12:14.209Z,100044.03
2023-02-01T06:12:50.204Z,100029.91
2023-02-01T06:13:26.881Z,100028.78
2023-02-01T06:14:03.331Z,100040.81
2023-02-01T06:14:39.645Z,100039.66
2023-02-01T06:15:15.880Z,100044.63
2023-02-01T06:15:51.905Z,100050.06
2023-02-01T06:16:27.835Z,100040.00
2023-02-01T06:17:03.257Z,100040.00
2023-02-01T06:17:39.665Z,100050.06
2023-02-01T06:18:15.990Z,100057.97
2023-02-01T06:18:52.084Z,100050.88
2023-02-01T06:19:28.080Z,100050.06
2023-02-01T06:20:04.381Z,100048.97
2023-02-01T06:20:40.132Z,100046.25
2023-02-01T06:21:16.571Z,100036.72
2023-02-01T06:21:53.078Z,100046.25
2023-02-01T06:22:28.884Z,100050.56
2023-02-01T06:23:05.284Z,100050.06
2023-02-01T06:23:41.914Z,100040.81
2023-02-01T06:24:18.219Z,100051.69
2023-02-01T06:24:54.586Z,100057.16
2023-02-01T06:25:30.446Z,100053.91
2023-02-01T06:26:06.871Z,100045.94
2023-02-01T06:26:42.807Z,100044.84
2023-02-01T06:27:18.321Z,100042.72
2023-02-01T06:27:54.205Z,100048.16
2023-02-01T06:28:30.240Z,100056.03
2023-02-01T06:29:06.505Z,100057.16
2023-02-01T06:29:42.594Z,100059.34
2023-02-01T06:30:18.766Z,100049.78
2023-02-01T06:30:54.589Z,100043.53
2023-02-01T06:31:30.300Z,100048.97
2023-02-01T06:32:06.968Z,100055.53
2023-02-01T06:32:43.127Z,100051.69
2023-02-01T06:33:19.410Z,100052.81
2023-02-01T06:33:56.077Z,100049.78
2023-02-01T06:34:32.854Z,100051.38
2023-02-01T06:35:09.497Z,100064.19
2023-02-01T06:35:45.270Z,100056.03
2023-02-01T06:36:20.967Z,100060.38
2023-02-01T06:36:57.486Z,100059.56
2023-02-01T06:37:34.217Z,100071.59
2023-02-01T06:38:10.216Z,100066.13
2023-02-01T06:38:46.473Z,100065.81
2023-02-01T06:39:21.915Z,100059.56
2023-02-01T06:39:58.457Z,100062.59
2023-02-01T06:40:34.633Z,100062.28
2023-02-01T06:41:10.237Z,100062.81
2023-02-01T06:41:46.588Z,100055.75
2023-02-01T06:42:22.656Z,100054.94
2023-02-01T06:42:58.999Z,100048.97
2023-02-01T06:43:35.397Z,100058.25
2023-02-01T06:44:11.284Z,100051.91
2023-02-01T06:44:48.127Z,100046.47
2023-02-01T06:45:24.224Z,100051.38
2023-02-01T06:46:00.167Z,100055.75
2023-02-01T06:46:35.983Z,100057.44
2023-02-01T06:47:12.740Z,100047.56
2023-02-01T06:47:49.777Z,100065.00
2023-02-01T06:48:25.768Z,100062.59
2023-02-01T06:49:02.235Z,100069.09
2023-02-01T06:49:38.702Z,100062.00
2023-02-01T06:50:15.177Z,100062.00
2023-02-01T06:50:51.550Z,100068.56
2023-02-01T06:51:27.894Z,100070.47
2023-02-01T06:52:03.499Z,100060.09
2023-02-01T06:52:39.988Z,100059.28
2023-02-01T06:53:16.213Z,100063.91
2023-02-01T06:53:52.903Z,100064.44
2023-02-01T06:54:29.397Z,100070.72